createdAt,value
2018-06-17T09:13:37.393Z,38.33
2018-06-17T09:16:08.533Z,39.45
2018-06-17T10:54:45.384Z,39.23
2018-06-17T10:57:16.837Z,39.26
2018-06-17T10:59:48.681Z,39.63
2018-06-17T11:02:20.699Z,36.71
2018-06-17T11:04:52.133Z,40.46
2018-06-17T11:07:34.129Z,41.14
2018-06-17T11:10:08.836Z,38.15
2018-06-17T11:12:40.128Z,41.49
2018-06-17T11:15:13.656Z,41.30
2018-06-17T11:17:47.639Z,40.50
2018-06-17T11:20:22.464Z,39.67
2018-06-17T11:22:54.395Z,36.06
2018-06-17T11:25:32.176Z,38.06
2018-06-17T11:28:06.143Z,38.74
2018-06-17T11:30:37.650Z,38.51
2018-06-17T11:33:08.876Z,36.30
2018-06-17T11:35:40.250Z,38.93
2018-06-17T11:38:12.500Z,38.49
2018-06-17T11:40:44.067Z,36.31
2018-06-17T11:43:16.391Z,37.72
2018-06-17T11:45:47.789Z,38.51
2018-06-17T11:48:19.152Z,38.58
2018-06-17T11:50:50.592Z,36.04
2018-06-17T11:53:21.870Z,35.10
2018-06-17T11:55:53.299Z,37.46
2018-06-17T11:59:02.583Z,37.48
2018-06-17T12:01:34.041Z,38.81
2018-06-17T12:04:05.789Z,36.63
2018-06-17T12:06:37.160Z,35.84
2018-06-17T12:09:10.709Z,39.78
2018-06-17T12:11:42.499Z,36.38
2018-06-17T12:14:18.299Z,36.79
2018-06-17T12:16:50.437Z,37.98
2018-06-17T12:19:22.457Z,37.58
2018-06-17T12:21:57.569Z,36.23
2018-06-17T12:24:31.330Z,36.06
2018-06-17T12:27:04.911Z,34.99
2018-06-17T12:29:37.418Z,33.24
2018-06-17T12:32:09.911Z,34.85
2018-06-17T12:34:41.922Z,34.80
2018-06-17T12:37:16.110Z,35.26
2018-06-17T12:39:48.650Z,34.93
2018-06-17T12:48:22.150Z,32.87
2018-06-17T12:50:55.161Z,36.35
2018-06-17T12:53:28.742Z,37.05
2018-06-17T13:16:01.760Z,36.75
2018-06-17T13:18:34.405Z,34.86
2018-06-17T13:21:07.080Z,34.43
2018-06-17T13:23:38.675Z,31.89
2018-06-17T13:26:10.435Z,33.08
2018-06-17T13:28:41.825Z,34.47
2018-06-17T13:31:13.426Z,34.58
2018-06-17T13:33:44.324Z,36.76
2018-06-17T13:36:15.570Z,38.50
2018-06-17T13:38:47.125Z,36.86
2018-06-17T13:41:18.559Z,36.61
2018-06-17T13:43:50.702Z,35.98
2018-06-17T13:46:23.599Z,37.91
2018-06-17T13:48:57.225Z,35.83
2018-06-17T13:51:29.660Z,37.17
2018-06-17T13:54:01.631Z,37.66
2018-06-17T13:56:35.576Z,37.59
2018-06-17T13:59:06.931Z,37.47
2018-06-17T14:01:38.531Z,37.42
2018-06-17T14:04:09.374Z,38.57
2018-06-17T14:06:40.688Z,37.67
2018-06-17T14:09:12.073Z,36.12
2018-06-17T14:11:43.481Z,36.54
2018-06-17T14:14:14.785Z,37.56
2018-06-17T14:16:46.209Z,35.04
2018-06-17T14:19:17.508Z,35.33
2018-06-17T14:21:49.200Z,34.64
2018-06-17T14:24:20.552Z,35.67
2018-06-17T14:26:52.198Z,34.80
2018-06-17T14:29:23.596Z,36.33
2018-06-17T14:31:55.981Z,36.36
2018-06-17T14:34:27.835Z,37.68
2018-06-17T14:36:59.571Z,37.15
2018-06-17T14:39:30.892Z,37.86
2018-06-17T14:42:07.265Z,37.86
2018-06-17T14:44:43.433Z,38.93
2018-06-17T14:47:19.688Z,38.75
2018-06-17T14:49:56.025Z,38.84
2018-06-17T14:52:36.814Z,38.04
2018-06-17T14:55:08.337Z,39.68
2018-06-17T14:57:40.317Z,39.37
2018-06-17T15:00:11.681Z,39.35
2018-06-17T15:02:43.097Z,40.19
2018-06-17T15:05:17.601Z,41.92
2018-06-17T15:07:49.133Z,40.50
2018-06-17T15:10:22.485Z,37.57
2018-06-17T15:12:53.731Z,38.38
2018-06-17T15:15:25.530Z,38.68
2018-06-17T15:17:57.002Z,39.48
2018-06-17T15:20:28.783Z,38.46
2018-06-17T15:23:00.113Z,38.88
2018-06-17T15:25:31.629Z,38.73
2018-06-17T15:28:02.953Z,38.11
2018-06-17T15:30:34.340Z,40.24
2018-06-17T15:33:10.524Z,39.26
2018-06-17T15:35:46.255Z,39.26
2018-06-17T15:38:21.949Z,40.28
2018-06-17T15:40:58.073Z,39.49
2018-06-17T15:43:30.027Z,39.77
2018-06-17T15:46:00.858Z,39.29
2018-06-17T15:48:32.113Z,38.74
2018-06-17T15:51:03.500Z,39.57
2018-06-17T15:53:35.239Z,38.93
2018-06-17T15:56:06.721Z,38.43
2018-06-17T15:58:38.279Z,38.05
2018-06-17T16:01:09.799Z,39.12
2018-06-17T16:03:41.191Z,39.03
2018-06-17T16:06:12.476Z,38.40
2018-06-17T16:08:44.274Z,39.92
2018-06-17T16:11:16.097Z,39.76
2018-06-17T16:13:52.692Z,38.50
2018-06-17T16:16:29.461Z,39.59
2018-06-17T16:19:05.880Z,39.47
2018-06-17T16:21:37.274Z,39.37
2018-06-17T16:24:09.062Z,40.51
2018-06-17T16:26:40.471Z,40.23
2018-06-17T16:29:13.752Z,40.42
2018-06-17T16:31:44.932Z,40.70
2018-06-17T16:34:19.346Z,40.91
2018-06-17T16:36:51.073Z,40.23
2018-06-17T16:39:21.976Z,40.28
2018-06-17T16:48:07.161Z,42.11
2018-06-17T16:50:39.207Z,42.38
2018-06-17T16:53:15.436Z,42.06
2018-06-17T16:55:51.688Z,43.02
2018-06-17T16:58:28.093Z,41.18
2018-06-17T17:00:59.575Z,41.11
2018-06-17T17:03:30.898Z,40.65
2018-06-17T17:06:02.322Z,41.54
2018-06-17T17:08:33.727Z,42.75
2018-06-17T17:11:05.276Z,42.95
2018-06-17T17:13:36.685Z,43.24
2018-06-17T17:16:08.126Z,42.57
2018-06-17T17:18:39.539Z,41.21
2018-06-17T17:21:10.950Z,41.18
2018-06-17T17:23:42.751Z,40.75
2018-06-17T17:26:14.149Z,41.39
2018-06-17T17:28:45.551Z,42.96
2018-06-17T17:31:24.979Z,42.12
2018-06-17T17:34:02.507Z,43.12
2018-06-17T17:36:38.872Z,43.53
2018-06-17T17:39:15.551Z,44.30
2018-06-17T17:41:49.173Z,44.06
2018-06-17T17:44:20.062Z,44.71
2018-06-17T17:46:56.226Z,44.71
2018-06-17T17:52:01.590Z,45.37
2018-06-17T17:54:31.685Z,43.78
2018-06-17T17:57:01.731Z,44.13
2018-06-17T17:59:36.030Z,44.14
2018-06-17T18:02:06.423Z,44.08
2018-06-17T18:04:36.368Z,45.55
2018-06-17T18:07:06.336Z,45.79
2018-06-17T18:09:36.256Z,46.01
2018-06-17T18:12:06.211Z,46.29
2018-06-17T18:14:36.097Z,45.94
2018-06-17T18:17:06.120Z,45.87
2018-06-17T18:19:36.028Z,45.93
2018-06-17T18:22:06.102Z,45.82
2018-06-17T18:24:36.056Z,45.48
2018-06-17T18:27:12.042Z,45.62
2018-06-17T18:29:46.840Z,44.45
2018-06-17T18:32:21.810Z,45.33
2018-06-17T18:34:56.740Z,46.82
2018-06-17T18:37:27.135Z,46.86
2018-06-17T18:39:57.071Z,47.31
2018-06-17T18:42:27.737Z,47.59
2018-06-17T18:44:57.617Z,48.21
2018-06-17T18:47:32.337Z,48.83
2018-06-17T18:50:02.384Z,48.28
2018-06-17T18:52:32.295Z,48.98
2018-06-17T18:55:02.203Z,48.80
2018-06-17T18:57:32.673Z,49.15
2018-06-17T19:00:02.721Z,48.65
2018-06-17T19:02:32.890Z,49.73
2018-06-17T19:05:02.848Z,49.86
2018-06-17T19:07:32.865Z,49.69
2018-06-17T19:10:07.865Z,49.74
2018-06-17T19:12:42.723Z,50.08
2018-06-17T19:15:17.569Z,48.96
2018-06-17T19:17:52.606Z,48.89
2018-06-17T19:20:22.713Z,48.88
2018-06-17T19:22:52.653Z,49.38
2018-06-17T19:25:24.865Z,49.33
2018-06-17T19:27:55.079Z,49.36
2018-06-17T19:30:27.907Z,49.76
2018-06-17T19:32:58.009Z,50.39
2018-06-17T19:35:28.590Z,50.00
2018-06-17T19:37:59.006Z,49.83
2018-06-17T19:40:29.594Z,50.61
2018-06-17T19:42:59.775Z,50.48
2018-06-17T19:45:29.832Z,50.85
2018-06-17T19:47:59.925Z,50.68
2018-06-17T19:50:35.691Z,51.50
2018-06-17T19:53:10.786Z,51.24
2018-06-17T19:55:45.973Z,52.17
2018-06-17T19:58:20.904Z,53.46
2018-06-17T20:00:53.897Z,53.27
2018-06-17T20:03:23.960Z,54.44
2018-06-17T20:05:55.374Z,55.63
2018-06-17T20:08:25.803Z,56.68
2018-06-17T20:10:55.882Z,55.82
2018-06-17T20:13:26.260Z,55.63
2018-06-17T20:15:56.413Z,55.48
2018-06-17T20:18:28.316Z,56.32
2018-06-17T20:20:58.543Z,56.17
2018-06-17T20:23:29.047Z,56.57
2018-06-17T20:26:00.417Z,57.56
2018-06-17T20:28:30.562Z,58.24
2018-06-17T20:31:05.385Z,62.61
2018-06-17T20:33:40.513Z,66.68
2018-06-17T20:36:16.351Z,66.37
2018-06-17T20:38:53.729Z,67.35
2018-06-17T20:43:36.349Z,68.18
2018-06-17T20:46:06.335Z,63.61
2018-06-17T20:48:36.292Z,62.28
2018-06-17T20:51:06.503Z,60.63
2018-06-17T20:53:36.587Z,58.52
2018-06-17T20:56:07.349Z,58.40
2018-06-17T20:58:37.342Z,58.63
2018-06-17T21:01:07.397Z,55.86
2018-06-17T21:03:37.505Z,55.62
2018-06-17T21:06:08.479Z,56.26
2018-06-17T21:08:38.532Z,56.78
2018-06-17T21:11:08.541Z,56.41
2018-06-17T21:13:38.566Z,58.13
2018-06-17T21:16:08.677Z,62.43
2018-06-17T21:18:43.509Z,59.84
2018-06-17T21:21:18.385Z,58.74
2018-06-17T21:23:53.435Z,59.96
2018-06-17T21:26:28.391Z,60.17
2018-06-17T21:28:58.491Z,61.11
2018-06-17T21:31:28.960Z,62.42
2018-06-17T21:33:59.058Z,63.03
2018-06-17T21:36:29.570Z,62.69
2018-06-17T21:38:59.678Z,62.76
2018-06-17T21:41:29.698Z,61.70
2018-06-17T21:43:59.729Z,61.97
2018-06-17T21:46:29.912Z,61.30
2018-06-17T21:49:00.006Z,59.82
2018-06-17T21:51:30.018Z,59.82
2018-06-17T21:54:00.054Z,60.24
2018-06-17T22:08:48.882Z,60.23
2018-06-17T22:11:23.874Z,61.15
2018-06-17T22:13:58.912Z,61.67
2018-06-17T22:16:34.424Z,61.40
2018-06-17T22:19:04.654Z,61.19
2018-06-17T22:21:34.843Z,61.16
2018-06-17T22:24:05.370Z,61.74
2018-06-17T22:26:35.389Z,61.34
2018-06-17T22:29:05.387Z,60.99
2018-06-17T22:31:35.695Z,62.07
2018-06-17T22:34:05.751Z,62.10
2018-06-17T22:36:35.949Z,62.29
2018-06-17T22:39:08.672Z,61.67
2018-06-17T22:41:40.381Z,62.11
2018-06-17T22:44:10.572Z,62.25
2018-06-17T22:46:40.536Z,62.58
2018-06-17T22:49:10.444Z,63.01
2018-06-17T22:51:40.486Z,65.60
2018-06-17T22:54:21.280Z,64.46
2018-06-17T22:56:56.267Z,63.31
2018-06-17T22:59:31.168Z,63.87
2018-06-17T23:02:06.143Z,63.46
2018-06-17T23:04:41.108Z,63.21
2018-06-17T23:07:16.237Z,63.00
2018-06-17T23:09:48.753Z,63.42
2018-06-17T23:12:18.754Z,63.70
2018-06-17T23:14:48.691Z,63.79
2018-06-17T23:17:18.740Z,64.95
2018-06-17T23:19:48.898Z,65.37
2018-06-17T23:22:18.896Z,67.07
2018-06-17T23:24:49.063Z,66.85
2018-06-17T23:27:19.034Z,66.81
2018-06-17T23:29:48.926Z,68.48
2018-06-17T23:32:19.235Z,70.21
2018-06-17T23:34:49.280Z,73.43
2018-06-17T23:37:19.264Z,71.91
2018-06-17T23:39:49.144Z,73.75
2018-06-17T23:42:20.618Z,74.26
2018-06-17T23:44:50.950Z,74.81
2018-06-17T23:47:26.390Z,74.32
2018-06-17T23:50:01.470Z,74.38
2018-06-17T23:52:36.497Z,73.18
2018-06-17T23:55:13.754Z,73.37
2018-06-17T23:57:44.782Z,72.72
